Time;durP1;ratioP1;P1;durP2;ratioP2;P2;SDS_P1;SDS_P2;PMS_P1;PMS_P2;Temp;Humidity;BMP_temperature;BMP_pressure;BME280_temperature;BME280_humidity;BME280_pressure;Samples;Min_cycle;Max_cycle;Signal;HPM_P1;HPM_P2
2022/07/22 00:03:27;;;;;;;16.55;9.55;;;;;;;;;;10525464;28;20043;-71
2022/07/22 00:08:31;;;;;;;20.70;10.10;;;;;;;;;;10531679;28;20047;-71
2022/07/22 00:13:36;;;;;;;17.38;9.43;;;;;;;;;;10529176;28;20609;-71
2022/07/22 00:18:39;;;;;;;12.68;8.38;;;;;;;;;;10524055;28;20078;-71
2022/07/22 00:23:43;;;;;;;17.23;9.18;;;;;;;;;;10518579;28;20035;-73
2022/07/22 00:28:45;;;;;;;18.23;9.80;;;;;;;;;;10529611;28;20123;-72
2022/07/22 00:33:48;;;;;;;;;;;;;;;;;;10517300;28;20032;-70
2022/07/22 00:38:52;;;;;;;18.40;9.43;;;;;;;;;;10529289;28;19931;-71
2022/07/22 00:43:59;;;;;;;16.85;9.20;;;;;;;;;;10520496;28;20044;-71
2022/07/22 00:49:02;;;;;;;18.58;10.27;;;;;;;;;;10526414;28;20085;-70
2022/07/22 00:54:06;;;;;;;14.77;7.30;;;;;;;;;;10526665;28;20032;-71
2022/07/22 00:59:11;;;;;;;13.52;8.38;;;;;;;;;;10523964;28;20032;-71
2022/07/22 01:04:14;;;;;;;16.13;8.43;;;;;;;;;;10522832;28;20056;-69
2022/07/22 01:09:18;;;;;;;18.88;10.60;;;;;;;;;;10522669;28;20039;-71
2022/07/22 01:14:24;;;;;;;19.10;9.90;;;;;;;;;;10540241;28;20040;-70
2022/07/22 01:19:27;;;;;;;;;;;;;;;;;;10522574;28;20831;-71
2022/07/22 01:24:32;;;;;;;16.80;10.23;;;;;;;;;;10523098;28;19920;-69
2022/07/22 01:29:36;;;;;;;15.25;9.52;;;;;;;;;;10524067;28;20569;-71
2022/07/22 01:34:43;;;;;;;19.00;10.88;;;;;;;;;;10523692;28;20518;-71
2022/07/22 01:39:48;;;;;;;16.83;9.90;;;;;;;;;;10519851;28;20126;-69
2022/07/22 01:44:51;;;;;;;19.58;10.57;;;;;;;;;;10524566;28;20094;-71
2022/07/22 01:49:54;;;;;;;18.23;10.20;;;;;;;;;;10521267;28;20035;-72
2022/07/22 01:54:58;;;;;;;18.00;10.18;;;;;;;;;;10520741;28;20457;-72
2022/07/22 02:00:01;;;;;;;18.33;10.13;;;;;;;;;;10521465;28;20036;-70
2022/07/22 02:05:05;;;;;;;18.13;10.68;;;;;;;;;;10522222;28;20141;-73
2022/07/22 02:10:10;;;;;;;17.50;10.23;;;;;;;;;;10523854;28;20040;-72
2022/07/22 02:15:13;;;;;;;20.90;11.30;;;;;;;;;;10524395;28;20047;-70
2022/07/22 02:20:15;;;;;;;20.05;11.55;;;;;;;;;;10518348;28;20063;-70
2022/07/22 02:25:20;;;;;;;19.42;11.55;;;;;;;;;;10521909;28;20123;-69
2022/07/22 02:30:22;;;;;;;25.98;11.38;;;;;;;;;;10517553;28;20036;-69
2022/07/22 02:35:25;;;;;;;17.13;9.97;;;;;;;;;;10522374;28;21612;-70
2022/07/22 02:40:31;;;;;;;17.00;10.57;;;;;;;;;;10518678;28;20067;-70
2022/07/22 02:45:34;;;;;;;23.83;11.45;;;;;;;;;;10524590;28;20052;-70
2022/07/22 02:50:38;;;;;;;18.63;10.30;;;;;;;;;;10522982;28;20036;-70
2022/07/22 02:55:43;;;;;;;18.10;10.10;;;;;;;;;;10521647;28;20048;-71
2022/07/22 03:00:46;;;;;;;17.30;9.98;;;;;;;;;;10518540;28;20040;-72
2022/07/22 03:05:49;;;;;;;17.08;10.43;;;;;;;;;;10521309;28;20051;-70
2022/07/22 03:10:53;;;;;;;20.50;10.77;;;;;;;;;;10522205;28;20487;-71
2022/07/22 03:15:56;;;;;;;17.23;10.35;;;;;;;;;;10529984;28;20073;-71
2022/07/22 03:20:58;;;;;;;19.57;9.60;;;;;;;;;;10523604;28;20064;-71
2022/07/22 03:26:03;;;;;;;18.77;10.38;;;;;;;;;;10532047;28;20407;-71
2022/07/22 03:31:06;;;;;;;16.73;9.43;;;;;;;;;;10521063;28;20072;-71
2022/07/22 03:36:09;;;;;;;19.17;10.10;;;;;;;;;;10526037;28;20072;-73
2022/07/22 03:41:14;;;;;;;18.10;10.18;;;;;;;;;;10526002;28;20047;-71
2022/07/22 03:46:16;;;;;;;19.38;10.90;;;;;;;;;;10528367;28;20089;-71
2022/07/22 03:51:19;;;;;;;19.38;10.73;;;;;;;;;;10523007;28;20040;-71
2022/07/22 03:56:24;;;;;;;18.95;11.73;;;;;;;;;;10527729;28;20032;-72
2022/07/22 04:01:27;;;;;;;19.35;11.23;;;;;;;;;;10547425;27;20507;-71
2022/07/22 04:06:31;;;;;;;19.42;10.93;;;;;;;;;;10528883;28;20407;-71
2022/07/22 04:11:35;;;;;;;25.50;14.57;;;;;;;;;;10527801;28;20048;-70
2022/07/22 04:16:38;;;;;;;19.92;11.48;;;;;;;;;;10523419;28;20070;-70
2022/07/22 04:21:41;;;;;;;19.42;10.88;;;;;;;;;;10527877;28;20036;-71
2022/07/22 04:26:45;;;;;;;17.77;10.50;;;;;;;;;;10521751;28;20051;-72
2022/07/22 04:31:48;;;;;;;14.88;7.75;;;;;;;;;;10523546;28;20360;-73
2022/07/22 04:36:50;;;;;;;17.80;9.65;;;;;;;;;;10525870;28;20036;-71
2022/07/22 04:41:54;;;;;;;17.08;9.07;;;;;;;;;;10526798;28;20024;-71
2022/07/22 04:46:57;;;;;;;19.77;10.07;;;;;;;;;;10525585;28;20093;-69
2022/07/22 04:52:00;;;;;;;17.90;10.18;;;;;;;;;;10545840;27;20032;-71
2022/07/22 04:57:04;;;;;;;17.48;10.45;;;;;;;;;;10530027;28;20071;-72
2022/07/22 05:02:07;;;;;;;23.52;11.27;;;;;;;;;;10524645;28;20040;-72
2022/07/22 05:07:10;;;;;;;23.13;10.30;;;;;;;;;;10527694;28;20048;-70
2022/07/22 05:12:15;;;;;;;18.65;11.23;;;;;;;;;;10522020;28;20067;-69
2022/07/22 05:17:17;;;;;;;18.70;10.27;;;;;;;;;;10524207;28;20046;-72
2022/07/22 05:22:20;;;;;;;18.92;10.80;;;;;;;;;;10521522;28;20032;-70
2022/07/22 05:27:24;;;;;;;17.92;10.68;;;;;;;;;;10525975;28;20036;-71
2022/07/22 05:32:27;;;;;;;22.23;11.65;;;;;;;;;;10523208;28;20028;-73
2022/07/22 05:37:30;;;;;;;21.50;11.15;;;;;;;;;;10525548;28;20040;-71
2022/07/22 05:42:34;;;;;;;18.08;10.48;;;;;;;;;;10517954;28;20044;-73
2022/07/22 05:47:37;;;;;;;20.23;10.43;;;;;;;;;;10520544;28;20500;-71
2022/07/22 05:52:42;;;;;;;19.25;10.55;;;;;;;;;;10515414;28;20044;-68
2022/07/22 05:57:47;;;;;;;17.23;9.68;;;;;;;;;;10525282;28;20044;-69
2022/07/22 06:02:50;;;;;;;17.90;9.77;;;;;;;;;;10517247;28;20040;-69
2022/07/22 06:07:53;;;;;;;19.02;9.90;;;;;;;;;;10548616;27;20082;-70
2022/07/22 06:12:57;;;;;;;17.95;9.55;;;;;;;;;;10522257;28;20105;-70
2022/07/22 06:18:01;;;;;;;16.15;9.57;;;;;;;;;;10523044;28;20113;-71
2022/07/22 06:23:04;;;;;;;16.02;9.25;;;;;;;;;;10521775;28;20392;-70
2022/07/22 06:28:06;;;;;;;;;;;;;;;;;;10521762;28;20111;-69
2022/07/22 06:33:11;;;;;;;16.60;9.70;;;;;;;;;;10522054;28;19920;-69
2022/07/22 06:38:15;;;;;;;16.02;9.80;;;;;;;;;;10518362;28;20048;-69
2022/07/22 06:43:32;;;;;;;16.05;9.95;;;;;;;;;;10516294;28;20044;-72
2022/07/22 06:48:37;;;;;;;15.90;9.02;;;;;;;;;;10519729;28;20058;-71
2022/07/22 06:53:41;;;;;;;16.55;10.07;;;;;;;;;;10520647;28;20067;-72
2022/07/22 06:58:50;;;;;;;18.17;9.80;;;;;;;;;;10520345;28;20703;-70
2022/07/22 07:03:54;;;;;;;15.75;8.85;;;;;;;;;;10523292;28;20068;-73
2022/07/22 07:08:58;;;;;;;17.10;9.30;;;;;;;;;;10548813;28;20083;-72
2022/07/22 07:14:02;;;;;;;16.52;9.70;;;;;;;;;;10520734;28;20494;-71
2022/07/22 07:19:05;;;;;;;;;;;;;;;;;;10517487;28;20353;-71
2022/07/22 07:24:09;;;;;;;19.77;9.80;;;;;;;;;;10520631;28;19928;-70
2022/07/22 07:29:15;;;;;;;18.75;10.55;;;;;;;;;;10504680;28;20036;-71
2022/07/22 07:34:25;;;;;;;15.25;9.10;;;;;;;;;;10520772;28;20128;-72
2022/07/22 07:39:30;;;;;;;14.63;8.15;;;;;;;;;;10519559;28;20091;-72
2022/07/22 07:44:33;;;;;;;15.25;8.63;;;;;;;;;;10516159;28;20040;-72
2022/07/22 07:49:36;;;;;;;16.73;9.35;;;;;;;;;;10520789;28;20418;-71
2022/07/22 07:54:41;;;;;;;13.60;8.68;;;;;;;;;;10515106;28;20098;-71
2022/07/22 08:00:04;;;;;;;12.05;8.27;;;;;;;;;;10521926;28;20085;-71
2022/07/22 08:05:12;;;;;;;12.65;8.85;;;;;;;;;;10528500;28;20032;-71
2022/07/22 08:10:18;;;;;;;12.07;9.05;;;;;;;;;;10532791;28;20749;-71
2022/07/22 08:15:44;;;;;;;11.73;8.57;;;;;;;;;;10548042;28;20134;-70
2022/07/22 08:20:48;;;;;;;10.02;7.95;;;;;;;;;;10525230;28;20055;-70
2022/07/22 08:25:53;;;;;;;12.38;8.68;;;;;;;;;;10528601;28;20028;-70
2022/07/22 08:30:56;;;;;;;10.18;8.35;;;;;;;;;;10532600;28;20036;-71
2022/07/22 08:35:59;;;;;;;12.15;8.77;;;;;;;;;;10523470;28;20693;-71
2022/07/22 08:41:04;;;;;;;12.18;8.70;;;;;;;;;;10528838;28;20051;-71
2022/07/22 08:46:07;;;;;;;13.13;9.00;;;;;;;;;;10527026;28;20067;-70
2022/07/22 08:51:10;;;;;;;11.73;8.70;;;;;;;;;;10527626;28;20040;-72
2022/07/22 08:56:14;;;;;;;11.88;8.20;;;;;;;;;;10529540;28;20541;-71
2022/07/22 09:01:18;;;;;;;11.73;8.07;;;;;;;;;;10522999;28;20043;-72
2022/07/22 09:06:22;;;;;;;12.23;8.15;;;;;;;;;;10526055;28;20563;-70
2022/07/22 09:11:28;;;;;;;9.70;7.10;;;;;;;;;;10528773;28;20036;-71
2022/07/22 09:16:41;;;;;;;9.02;7.05;;;;;;;;;;10521568;28;20068;-73
2022/07/22 09:21:47;;;;;;;8.90;7.45;;;;;;;;;;10526417;28;20040;-72
2022/07/22 09:26:54;;;;;;;9.98;7.40;;;;;;;;;;10530436;28;20040;-73
2022/07/22 09:31:58;;;;;;;9.40;7.80;;;;;;;;;;10530101;28;20043;-72
2022/07/22 09:37:04;;;;;;;8.70;7.82;;;;;;;;;;10527399;28;20102;-70
2022/07/22 09:42:08;;;;;;;9.25;8.20;;;;;;;;;;10513674;28;20084;-72
2022/07/22 09:47:27;;;;;;;8.60;7.35;;;;;;;;;;10521052;28;20059;-71
2022/07/22 09:52:40;;;;;;;9.63;8.05;;;;;;;;;;10523018;28;20041;-72
2022/07/22 09:57:45;;;;;;;9.27;7.70;;;;;;;;;;10524531;28;20475;-73
2022/07/22 10:02:49;;;;;;;9.27;7.30;;;;;;;;;;10522871;28;20040;-71
2022/07/22 10:07:53;;;;;;;8.43;7.63;;;;;;;;;;10524593;28;20040;-72
2022/07/22 10:12:58;;;;;;;9.15;8.07;;;;;;;;;;10519464;28;20068;-71
2022/07/22 10:18:03;;;;;;;10.60;9.52;;;;;;;;;;10523675;28;20059;-72
2022/07/22 10:23:08;;;;;;;9.63;7.80;;;;;;;;;;10539531;28;20044;-71
2022/07/22 10:28:20;;;;;;;9.75;8.73;;;;;;;;;;10528827;28;20043;-71
2022/07/22 10:33:30;;;;;;;9.45;7.35;;;;;;;;;;10526615;28;20092;-71
2022/07/22 10:38:33;;;;;;;8.68;6.95;;;;;;;;;;10526622;28;20036;-71
2022/07/22 10:43:48;;;;;;;12.65;7.75;;;;;;;;;;10528938;28;20028;-71
2022/07/22 10:48:52;;;;;;;7.73;6.97;;;;;;;;;;10525363;28;20056;-71
2022/07/22 10:53:56;;;;;;;7.70;6.93;;;;;;;;;;10518170;28;20392;-72
2022/07/22 10:59:08;;;;;;;7.90;7.10;;;;;;;;;;10516986;28;20036;-72
2022/07/22 11:04:14;;;;;;;10.25;7.68;;;;;;;;;;10520368;28;20032;-72
2022/07/22 11:09:21;;;;;;;7.63;6.47;;;;;;;;;;10549403;28;20036;-71
2022/07/22 11:14:28;;;;;;;7.95;6.55;;;;;;;;;;10553021;27;20052;-71
2022/07/22 11:19:31;;;;;;;8.50;6.65;;;;;;;;;;10524288;28;20044;-70
2022/07/22 11:24:35;;;;;;;7.95;6.68;;;;;;;;;;10521400;28;20454;-71
2022/07/22 11:29:44;;;;;;;8.00;7.18;;;;;;;;;;10516741;28;20047;-72
2022/07/22 11:34:47;;;;;;;9.25;7.03;;;;;;;;;;10527128;28;20040;-71
2022/07/22 11:39:50;;;;;;;7.50;6.80;;;;;;;;;;10533014;28;20089;-72
2022/07/22 11:44:54;;;;;;;7.80;6.97;;;;;;;;;;10530918;28;20032;-72
2022/07/22 11:49:57;;;;;;;8.70;7.05;;;;;;;;;;10525673;28;20044;-73
2022/07/22 11:55:00;;;;;;;15.00;11.13;;;;;;;;;;10528954;28;20533;-70
2022/07/22 12:00:08;;;;;;;8.10;6.93;;;;;;;;;;10530391;28;20046;-71
2022/07/22 12:05:11;;;;;;;7.50;6.75;;;;;;;;;;10528307;28;20501;-72
2022/07/22 12:10:34;;;;;;;10.13;7.55;;;;;;;;;;10526197;28;20044;-72
2022/07/22 12:15:38;;;;;;;7.68;6.63;;;;;;;;;;10527772;28;20093;-70
2022/07/22 12:20:49;;;;;;;9.68;6.93;;;;;;;;;;10548759;27;20036;-72
2022/07/22 12:25:57;;;;;;;8.52;7.13;;;;;;;;;;10523937;28;20036;-74
2022/07/22 12:31:01;;;;;;;12.45;7.28;;;;;;;;;;10527038;28;20039;-72
2022/07/22 12:36:05;;;;;;;10.80;6.93;;;;;;;;;;10523516;28;20032;-70
2022/07/22 12:41:22;;;;;;;8.90;6.93;;;;;;;;;;10522332;28;20488;-71
2022/07/22 12:46:26;;;;;;;9.48;7.47;;;;;;;;;;10525649;28;20029;-72
2022/07/22 12:51:28;;;;;;;9.65;7.00;;;;;;;;;;10526434;28;20404;-71
2022/07/22 12:56:33;;;;;;;8.65;7.30;;;;;;;;;;10529461;28;20032;-71
2022/07/22 13:01:40;;;;;;;9.65;7.40;;;;;;;;;;10530408;28;20063;-71
2022/07/22 13:06:43;;;;;;;10.43;7.13;;;;;;;;;;10524802;28;20044;-72
2022/07/22 13:11:46;;;;;;;8.60;6.93;;;;;;;;;;10525577;28;20046;-70
2022/07/22 13:16:50;;;;;;;12.70;7.68;;;;;;;;;;10528923;28;20098;-72
2022/07/22 13:21:53;;;;;;;11.75;7.35;;;;;;;;;;10525729;28;20047;-73
2022/07/22 13:26:56;;;;;;;10.00;7.45;;;;;;;;;;10554087;27;20479;-72
2022/07/22 13:32:00;;;;;;;10.90;7.53;;;;;;;;;;10525359;28;20040;-71
2022/07/22 13:37:22;;;;;;;9.45;7.30;;;;;;;;;;10521986;28;20120;-71
2022/07/22 13:42:25;;;;;;;8.82;7.55;;;;;;;;;;10524801;28;20549;-71
2022/07/22 13:47:29;;;;;;;11.13;8.07;;;;;;;;;;10523772;28;20043;-72
2022/07/22 13:52:32;;;;;;;9.75;7.15;;;;;;;;;;10555098;27;20636;-71
2022/07/22 13:57:35;;;;;;;10.27;7.03;;;;;;;;;;10522201;28;20119;-72
2022/07/22 14:02:39;;;;;;;11.20;7.25;;;;;;;;;;10520237;28;20055;-72
2022/07/22 14:07:43;;;;;;;10.38;6.72;;;;;;;;;;10527251;28;20040;-70
2022/07/22 14:12:47;;;;;;;11.25;7.45;;;;;;;;;;10523146;28;20036;-70
2022/07/22 14:17:52;;;;;;;9.65;7.90;;;;;;;;;;10526308;28;20039;-72
2022/07/22 14:22:55;;;;;;;13.43;7.80;;;;;;;;;;10519775;28;20047;-73
2022/07/22 14:27:58;;;;;;;10.30;6.80;;;;;;;;;;10523691;28;20036;-72
2022/07/22 14:33:22;;;;;;;10.38;7.20;;;;;;;;;;10524020;28;20028;-72
2022/07/22 14:38:25;;;;;;;10.77;6.68;;;;;;;;;;10524609;28;20071;-72
2022/07/22 14:43:28;;;;;;;11.00;6.85;;;;;;;;;;10516884;28;20663;-72
2022/07/22 14:48:38;;;;;;;9.10;7.45;;;;;;;;;;10539304;28;20468;-72
2022/07/22 14:53:41;;;;;;;10.73;7.10;;;;;;;;;;10539590;28;20500;-71
2022/07/22 14:58:44;;;;;;;9.13;7.20;;;;;;;;;;10518235;28;20032;-72
2022/07/22 15:03:48;;;;;;;9.80;7.30;;;;;;;;;;10525193;28;20051;-71
2022/07/22 15:08:51;;;;;;;10.70;7.05;;;;;;;;;;10521916;28;20039;-72
2022/07/22 15:13:55;;;;;;;11.35;7.40;;;;;;;;;;10521573;28;20121;-71
2022/07/22 15:19:00;;;;;;;11.10;7.25;;;;;;;;;;10524818;28;20063;-72
2022/07/22 15:24:02;;;;;;;10.68;7.10;;;;;;;;;;10534506;28;20043;-71
2022/07/22 15:29:05;;;;;;;11.27;7.68;;;;;;;;;;10517005;28;20101;-71
2022/07/22 15:34:09;;;;;;;10.82;6.97;;;;;;;;;;10526991;28;20043;-72
2022/07/22 15:39:12;;;;;;;12.07;7.85;;;;;;;;;;10531852;28;20050;-71
2022/07/22 15:44:15;;;;;;;12.65;7.70;;;;;;;;;;10523667;28;20028;-71
2022/07/22 15:49:19;;;;;;;9.63;6.97;;;;;;;;;;10531032;28;20031;-72
2022/07/22 15:54:22;;;;;;;10.55;7.38;;;;;;;;;;10523897;28;20524;-71
2022/07/22 15:59:34;;;;;;;11.93;7.63;;;;;;;;;;10526845;28;20101;-70
2022/07/22 16:04:39;;;;;;;12.77;7.45;;;;;;;;;;10526220;28;20043;-72
2022/07/22 16:09:43;;;;;;;12.55;8.25;;;;;;;;;;10531112;28;20043;-73
2022/07/22 16:14:46;;;;;;;10.68;8.30;;;;;;;;;;10531667;28;20051;-72
2022/07/22 16:19:50;;;;;;;12.48;7.88;;;;;;;;;;10528088;28;20055;-72
2022/07/22 16:24:53;;;;;;;13.27;7.70;;;;;;;;;;10527579;28;20388;-72
2022/07/22 16:29:55;;;;;;;11.07;7.97;;;;;;;;;;10521948;28;20174;-72
2022/07/22 16:34:59;;;;;;;9.85;7.47;;;;;;;;;;10521139;28;20040;-71
2022/07/22 16:40:03;;;;;;;12.80;7.47;;;;;;;;;;10524226;28;20206;-72
2022/07/22 16:45:11;;;;;;;12.23;7.70;;;;;;;;;;10524011;28;20063;-72
2022/07/22 16:50:16;;;;;;;13.25;7.13;;;;;;;;;;10516918;28;20710;-72
2022/07/22 16:55:20;;;;;;;10.73;7.55;;;;;;;;;;10520877;28;20035;-73
2022/07/22 17:00:23;;;;;;;12.35;7.93;;;;;;;;;;10523464;28;20434;-73
2022/07/22 17:05:27;;;;;;;12.73;7.13;;;;;;;;;;10522280;28;20060;-75
2022/07/22 17:10:29;;;;;;;11.57;7.25;;;;;;;;;;10521875;28;20036;-73
2022/07/22 17:15:32;;;;;;;12.85;8.38;;;;;;;;;;10523079;28;20093;-72
2022/07/22 17:20:37;;;;;;;13.68;7.97;;;;;;;;;;10553257;27;20056;-71
2022/07/22 17:25:39;;;;;;;11.60;7.60;;;;;;;;;;10523068;28;20036;-71
2022/07/22 17:30:42;;;;;;;11.65;7.63;;;;;;;;;;10518889;28;20690;-70
2022/07/22 17:35:46;;;;;;;10.50;7.15;;;;;;;;;;10519226;28;20118;-72
2022/07/22 17:40:49;;;;;;;13.30;7.55;;;;;;;;;;10520016;28;20104;-72
2022/07/22 17:45:52;;;;;;;12.73;8.15;;;;;;;;;;10551203;27;20028;-72
2022/07/22 17:50:56;;;;;;;12.40;7.70;;;;;;;;;;10527078;28;20043;-71
2022/07/22 17:55:58;;;;;;;11.55;7.85;;;;;;;;;;10521322;28;20040;-72
2022/07/22 18:01:21;;;;;;;11.80;7.13;;;;;;;;;;10523647;28;20777;-72
2022/07/22 18:06:25;;;;;;;12.30;7.50;;;;;;;;;;10523142;28;20036;-72
2022/07/22 18:11:28;;;;;;;10.48;6.70;;;;;;;;;;10523403;28;20046;-72
2022/07/22 18:16:31;;;;;;;11.88;7.70;;;;;;;;;;10522645;28;20124;-72
2022/07/22 18:21:36;;;;;;;15.43;7.40;;;;;;;;;;10519235;28;20040;-73
2022/07/22 18:26:40;;;;;;;11.95;7.63;;;;;;;;;;10525593;28;20036;-73
2022/07/22 18:31:42;;;;;;;14.68;7.03;;;;;;;;;;10523268;28;20042;-71
2022/07/22 18:36:46;;;;;;;11.43;7.47;;;;;;;;;;10523260;28;20040;-72
2022/07/22 18:41:49;;;;;;;11.65;7.35;;;;;;;;;;10550525;27;20084;-72
2022/07/22 18:46:53;;;;;;;12.70;7.63;;;;;;;;;;10521980;28;20123;-71
2022/07/22 18:51:58;;;;;;;12.95;7.57;;;;;;;;;;10523732;28;20028;-72
2022/07/22 18:57:01;;;;;;;13.23;8.20;;;;;;;;;;10553968;27;20503;-72
2022/07/22 19:02:05;;;;;;;11.68;7.93;;;;;;;;;;10521369;28;20093;-71
2022/07/22 19:07:09;;;;;;;11.60;7.95;;;;;;;;;;10522126;28;20075;-73
2022/07/22 19:12:12;;;;;;;15.05;8.07;;;;;;;;;;10521376;28;20032;-72
2022/07/22 19:17:15;;;;;;;12.73;8.13;;;;;;;;;;10527969;28;20395;-71
2022/07/22 19:22:21;;;;;;;12.25;6.90;;;;;;;;;;10523566;28;20122;-70
2022/07/22 19:27:23;;;;;;;14.90;7.72;;;;;;;;;;10525403;28;20039;-72
2022/07/22 19:32:26;;;;;;;14.80;8.55;;;;;;;;;;10522709;28;20067;-72
2022/07/22 19:37:30;;;;;;;13.40;8.18;;;;;;;;;;10521118;28;20036;-73
2022/07/22 19:42:35;;;;;;;17.85;8.38;;;;;;;;;;10523225;28;20044;-72
2022/07/22 19:47:37;;;;;;;12.70;8.77;;;;;;;;;;10518541;28;20089;-73
2022/07/22 19:52:41;;;;;;;16.50;9.48;;;;;;;;;;10519505;28;20064;-71
2022/07/22 19:57:44;;;;;;;12.00;8.35;;;;;;;;;;10526669;28;20021;-72
2022/07/22 20:02:47;;;;;;;14.55;8.35;;;;;;;;;;10524703;28;20234;-72
2022/07/22 20:07:51;;;;;;;13.90;9.00;;;;;;;;;;10529530;28;20516;-72
2022/07/22 20:12:55;;;;;;;16.77;9.00;;;;;;;;;;10529984;28;20062;-71
2022/07/22 20:17:58;;;;;;;15.45;9.30;;;;;;;;;;10527197;28;20040;-72
2022/07/22 20:23:02;;;;;;;16.38;8.85;;;;;;;;;;10523573;28;20495;-72
2022/07/22 20:28:05;;;;;;;17.42;9.60;;;;;;;;;;10530951;28;20381;-72
2022/07/22 20:33:08;;;;;;;17.60;9.10;;;;;;;;;;10526353;28;20043;-72
2022/07/22 20:38:12;;;;;;;14.75;9.40;;;;;;;;;;10524228;28;20075;-73
2022/07/22 20:43:15;;;;;;;15.85;9.52;;;;;;;;;;10521166;28;20044;-72
2022/07/22 20:48:18;;;;;;;10.50;6.15;;;;;;;;;;10524783;28;20041;-72
2022/07/22 20:53:22;;;;;;;12.55;6.38;;;;;;;;;;10524234;28;20036;-72
2022/07/22 20:58:28;;;;;;;10.43;5.95;;;;;;;;;;10525464;28;20085;-72
2022/07/22 21:03:30;;;;;;;12.77;7.47;;;;;;;;;;10556841;27;20512;-71
2022/07/22 21:08:35;;;;;;;10.93;7.75;;;;;;;;;;10521498;28;20035;-72
2022/07/22 21:13:38;;;;;;;10.40;6.22;;;;;;;;;;10523435;28;20062;-71
2022/07/22 21:18:41;;;;;;;10.73;7.15;;;;;;;;;;10518348;28;20063;-73
2022/07/22 21:23:46;;;;;;;14.80;8.07;;;;;;;;;;10527785;28;20047;-72
2022/07/22 21:28:48;;;;;;;10.82;7.75;;;;;;;;;;10524405;28;20060;-72
2022/07/22 21:33:51;;;;;;;10.25;5.85;;;;;;;;;;10549127;27;20475;-73
2022/07/22 21:38:55;;;;;;;10.05;6.45;;;;;;;;;;10519808;28;20031;-72
2022/07/22 21:43:58;;;;;;;11.48;6.05;;;;;;;;;;10523007;28;20042;-72
2022/07/22 21:49:01;;;;;;;10.18;6.78;;;;;;;;;;10524224;28;20060;-71
2022/07/22 21:54:06;;;;;;;15.70;6.57;;;;;;;;;;10521842;28;20032;-71
2022/07/22 21:59:08;;;;;;;8.27;5.22;;;;;;;;;;10525906;28;20420;-73
2022/07/22 22:04:11;;;;;;;10.57;7.00;;;;;;;;;;10524669;28;20028;-72
2022/07/22 22:09:16;;;;;;;13.48;7.63;;;;;;;;;;10523500;28;20058;-72
2022/07/22 22:14:19;;;;;;;7.45;4.53;;;;;;;;;;10528920;28;20072;-70
2022/07/22 22:19:22;;;;;;;12.00;7.15;;;;;;;;;;10521838;28;20105;-71
2022/07/22 22:24:26;;;;;;;11.23;6.72;;;;;;;;;;10521494;28;20055;-71
2022/07/22 22:29:29;;;;;;;10.75;6.40;;;;;;;;;;10525700;28;20077;-71
2022/07/22 22:34:31;;;;;;;;;;;;;;;;;;10525281;28;20039;-71
2022/07/22 22:39:35;;;;;;;10.48;6.90;;;;;;;;;;10519417;28;20387;-70
2022/07/22 22:44:39;;;;;;;11.30;7.13;;;;;;;;;;10524287;28;20547;-71
2022/07/22 22:49:41;;;;;;;;;;;;;;;;;;10524070;28;20032;-71
2022/07/22 22:54:45;;;;;;;8.73;4.63;;;;;;;;;;10521698;28;19920;-71
2022/07/22 22:59:48;;;;;;;12.52;6.47;;;;;;;;;;10520086;28;20375;-72
2022/07/22 23:04:51;;;;;;;7.28;4.45;;;;;;;;;;10524822;28;20114;-71
2022/07/22 23:09:54;;;;;;;;;;;;;;;;;;10518075;28;20040;-71
2022/07/22 23:14:58;;;;;;;10.32;6.00;;;;;;;;;;10549996;28;19924;-72
2022/07/22 23:20:01;;;;;;;5.97;3.30;;;;;;;;;;10552167;28;20056;-71
2022/07/22 23:25:03;;;;;;;;;;;;;;;;;;10519078;28;20032;-70
2022/07/22 23:30:08;;;;;;;12.20;6.73;;;;;;;;;;10522958;28;20658;-73
2022/07/22 23:35:11;;;;;;;9.80;5.88;;;;;;;;;;10530180;28;20044;-72
2022/07/22 23:40:14;;;;;;;;;;;;;;;;;;10560416;27;20032;-72
2022/07/22 23:45:18;;;;;;;6.63;4.55;;;;;;;;;;10517265;28;19958;-72
2022/07/22 23:50:21;;;;;;;11.25;6.20;;;;;;;;;;10532037;28;20060;-71
2022/07/22 23:55:24;;;;;;;8.88;4.90;;;;;;;;;;10528779;28;20039;-72
